Time;durP1;ratioP1;P1;durP2;ratioP2;P2;SDS_P1;SDS_P2;PMS_P1;PMS_P2;Temp;Humidity;BMP_temperature;BMP_pressure;BME280_temperature;BME280_humidity;BME280_pressure;Samples;Min_cycle;Max_cycle;Signal;HPM_P1;HPM_P2
2022/10/02 00:00:21;;;;;;;0.00;0.00;;;;;;;;;;1732407;28;20422;-69
2022/10/02 00:01:17;;;;;;;0.00;0.00;;;;;;;;;;1732533;28;20219;-68
2022/10/02 00:02:13;;;;;;;0.00;0.00;;;;;;;;;;1731912;28;20247;-68
2022/10/02 00:03:08;;;;;;;0.00;0.00;;;;;;;;;;1732133;28;20196;-68
2022/10/02 00:04:00;;;;;;;0.00;0.00;;;;;;;;;;1729064;28;20245;-68
2022/10/02 00:04:54;;;;;;;0.00;0.00;;;;;;;;;;1731585;28;20294;-68
2022/10/02 00:05:48;;;;;;;0.00;0.00;;;;;;;;;;1733020;28;20227;-68
2022/10/02 00:06:44;;;;;;;0.00;0.00;;;;;;;;;;1731736;28;20294;-68
2022/10/02 00:07:37;;;;;;;0.00;0.00;;;;;;;;;;1732906;28;20657;-68
2022/10/02 00:08:31;;;;;;;0.00;0.00;;;;;;;;;;1731835;28;20318;-68
2022/10/02 00:09:25;;;;;;;0.00;0.00;;;;;;;;;;1732579;28;20242;-68
2022/10/02 00:10:20;;;;;;;0.00;0.00;;;;;;;;;;1732273;28;20207;-68
2022/10/02 00:11:12;;;;;;;0.00;0.00;;;;;;;;;;1732670;28;20713;-69
2022/10/02 00:12:07;;;;;;;0.00;0.00;;;;;;;;;;1731358;28;20693;-69
2022/10/02 00:13:01;;;;;;;0.00;0.00;;;;;;;;;;1732101;28;20626;-69
2022/10/02 00:13:55;;;;;;;0.00;0.00;;;;;;;;;;1732690;28;20215;-69
2022/10/02 00:14:48;;;;;;;0.00;0.00;;;;;;;;;;1731923;28;20246;-69
2022/10/02 00:15:41;;;;;;;0.00;0.00;;;;;;;;;;1733291;28;20967;-69
2022/10/02 00:16:34;;;;;;;0.00;0.00;;;;;;;;;;1731599;28;20291;-68
2022/10/02 00:17:28;;;;;;;0.00;0.00;;;;;;;;;;1732273;28;20200;-68
2022/10/02 00:18:21;;;;;;;0.00;0.00;;;;;;;;;;1731900;28;20208;-68
2022/10/02 00:19:16;;;;;;;0.00;0.00;;;;;;;;;;1732274;28;20203;-68
2022/10/02 00:20:11;;;;;;;0.00;0.00;;;;;;;;;;1732539;28;20216;-68
2022/10/02 00:21:06;;;;;;;0.00;0.00;;;;;;;;;;1732300;28;20203;-69
2022/10/02 00:22:04;;;;;;;0.00;0.00;;;;;;;;;;1732576;28;20315;-69
2022/10/02 00:22:59;;;;;;;0.00;0.00;;;;;;;;;;1732868;28;20550;-69
2022/10/02 00:23:52;;;;;;;0.00;0.00;;;;;;;;;;1732701;28;20480;-69
2022/10/02 00:24:47;;;;;;;0.00;0.00;;;;;;;;;;1733094;28;20621;-69
2022/10/02 00:25:43;;;;;;;0.00;0.00;;;;;;;;;;1730678;28;20706;-70
2022/10/02 00:26:37;;;;;;;0.00;0.00;;;;;;;;;;1733018;28;20801;-69
2022/10/02 00:27:43;;;;;;;0.00;0.00;;;;;;;;;;1733731;28;20327;-69
2022/10/02 00:28:41;;;;;;;0.00;0.00;;;;;;;;;;1730632;28;20291;-69
2022/10/02 00:29:36;;;;;;;0.00;0.00;;;;;;;;;;1733867;28;20283;-69
2022/10/02 00:30:34;;;;;;;0.00;0.00;;;;;;;;;;1733768;28;20215;-69
2022/10/02 00:31:31;;;;;;;0.00;0.00;;;;;;;;;;1733541;28;20556;-69
2022/10/02 00:32:28;;;;;;;0.00;0.00;;;;;;;;;;1733388;28;20191;-69
2022/10/02 00:33:22;;;;;;;0.00;0.00;;;;;;;;;;1733069;28;20710;-69
2022/10/02 00:34:20;;;;;;;0.00;0.00;;;;;;;;;;1733468;28;20208;-69
2022/10/02 00:35:21;;;;;;;0.00;0.00;;;;;;;;;;1733345;28;20261;-69
2022/10/02 00:36:18;;;;;;;0.00;0.00;;;;;;;;;;1733788;28;20195;-68
2022/10/02 00:37:12;;;;;;;0.00;0.00;;;;;;;;;;1733411;28;20235;-68
2022/10/02 00:38:09;;;;;;;0.00;0.00;;;;;;;;;;1733506;28;20204;-68
2022/10/02 00:39:04;;;;;;;0.00;0.00;;;;;;;;;;1739794;28;20351;-68
2022/10/02 00:39:58;;;;;;;0.00;0.00;;;;;;;;;;1740466;28;20217;-68
2022/10/02 00:41:10;;;;;;;0.00;0.00;;;;;;;;;;1740393;28;20298;-68
2022/10/02 00:42:24;;;;;;;0.00;0.00;;;;;;;;;;1739871;28;20525;-69
2022/10/02 00:43:21;;;;;;;0.00;0.00;;;;;;;;;;1739599;28;20253;-69
2022/10/02 00:44:21;;;;;;;0.00;0.00;;;;;;;;;;1740503;28;20190;-69
2022/10/02 00:45:29;;;;;;;0.00;0.00;;;;;;;;;;1740025;28;20696;-69
2022/10/02 00:46:32;;;;;;;0.00;0.00;;;;;;;;;;1732941;28;20199;-69
2022/10/02 00:47:30;;;;;;;0.00;0.00;;;;;;;;;;1740287;28;20343;-68
2022/10/02 00:48:33;;;;;;;0.00;0.00;;;;;;;;;;1739637;28;20549;-68
2022/10/02 00:49:31;;;;;;;0.00;0.00;;;;;;;;;;1740250;28;20238;-68
2022/10/02 00:50:28;;;;;;;0.00;0.00;;;;;;;;;;1739695;28;20198;-69
2022/10/02 00:51:30;;;;;;;0.00;0.00;;;;;;;;;;1739291;28;20719;-69
2022/10/02 00:52:29;;;;;;;0.00;0.00;;;;;;;;;;1737154;28;20195;-69
2022/10/02 00:53:24;;;;;;;0.00;0.00;;;;;;;;;;1738737;28;20243;-69
2022/10/02 00:54:23;;;;;;;0.00;0.00;;;;;;;;;;1740230;28;20203;-69
2022/10/02 00:55:27;;;;;;;0.00;0.00;;;;;;;;;;1739795;28;20546;-69
2022/10/02 00:56:26;;;;;;;0.00;0.00;;;;;;;;;;1740388;28;20222;-69
2022/10/02 00:57:24;;;;;;;0.00;0.00;;;;;;;;;;1740148;28;20195;-69
2022/10/02 00:58:29;;;;;;;0.00;0.00;;;;;;;;;;1739827;28;20335;-69
2022/10/02 00:59:30;;;;;;;0.00;0.00;;;;;;;;;;1740062;28;20291;-69
2022/10/02 01:00:23;;;;;;;0.00;0.00;;;;;;;;;;1740101;28;20191;-69
2022/10/02 01:01:16;;;;;;;0.00;0.00;;;;;;;;;;1740309;28;20298;-69
2022/10/02 01:02:11;;;;;;;0.00;0.00;;;;;;;;;;1739842;28;20214;-69
2022/10/02 01:03:10;;;;;;;0.00;0.00;;;;;;;;;;1739737;28;20642;-69
2022/10/02 01:04:06;;;;;;;0.00;0.00;;;;;;;;;;1740298;28;20529;-69
2022/10/02 01:04:57;;;;;;;0.00;0.00;;;;;;;;;;1738846;28;20247;-69
2022/10/02 01:05:49;;;;;;;0.00;0.00;;;;;;;;;;1740889;28;20318;-69
2022/10/02 01:06:41;;;;;;;0.00;0.00;;;;;;;;;;1739272;28;20218;-68
2022/10/02 01:07:33;;;;;;;0.00;0.00;;;;;;;;;;1740482;28;20694;-68
2022/10/02 01:08:25;;;;;;;0.00;0.00;;;;;;;;;;1739249;28;20199;-68
2022/10/02 01:09:17;;;;;;;0.00;0.00;;;;;;;;;;1740067;28;20207;-68
2022/10/02 01:10:08;;;;;;;0.00;0.00;;;;;;;;;;1739946;28;20250;-68
2022/10/02 01:11:01;;;;;;;0.00;0.00;;;;;;;;;;1740115;28;20533;-68
2022/10/02 01:11:53;;;;;;;0.00;0.00;;;;;;;;;;1739627;28;20211;-68
2022/10/02 01:12:44;;;;;;;0.00;0.00;;;;;;;;;;1740259;28;20639;-68
2022/10/02 01:13:36;;;;;;;0.00;0.00;;;;;;;;;;1739753;28;20214;-68
2022/10/02 01:14:32;;;;;;;0.00;0.00;;;;;;;;;;1740206;28;20231;-68
2022/10/02 01:15:28;;;;;;;0.00;0.00;;;;;;;;;;1739795;28;20179;-68
2022/10/02 01:16:20;;;;;;;0.00;0.00;;;;;;;;;;1739764;28;20242;-69
2022/10/02 01:17:21;;;;;;;0.00;0.00;;;;;;;;;;1740106;28;20276;-69
2022/10/02 01:18:13;;;;;;;0.00;0.00;;;;;;;;;;1739740;28;20322;-69
2022/10/02 01:19:06;;;;;;;0.00;0.00;;;;;;;;;;1740065;28;20234;-69
2022/10/02 01:19:59;;;;;;;0.00;0.00;;;;;;;;;;1739779;28;20210;-69
2022/10/02 01:20:52;;;;;;;0.00;0.00;;;;;;;;;;1739944;28;20203;-69
2022/10/02 01:21:45;;;;;;;0.00;0.00;;;;;;;;;;1739326;28;20221;-68
2022/10/02 01:22:39;;;;;;;0.00;0.00;;;;;;;;;;1739842;28;20210;-68
2022/10/02 01:23:32;;;;;;;0.00;0.00;;;;;;;;;;1739389;28;20293;-68
2022/10/02 01:24:28;;;;;;;0.00;0.00;;;;;;;;;;1740111;28;20488;-68
2022/10/02 01:25:20;;;;;;;0.00;0.00;;;;;;;;;;1739910;28;20249;-68
2022/10/02 01:26:12;;;;;;;0.00;0.00;;;;;;;;;;1740067;28;20207;-68
2022/10/02 01:27:03;;;;;;;0.00;0.00;;;;;;;;;;1739655;28;20290;-68
2022/10/02 01:27:55;;;;;;;0.00;0.00;;;;;;;;;;1740500;28;20195;-68
2022/10/02 01:28:47;;;;;;;0.00;0.00;;;;;;;;;;1739832;28;20592;-68
2022/10/02 01:29:39;;;;;;;0.00;0.00;;;;;;;;;;1739977;28;20195;-68
2022/10/02 01:30:31;;;;;;;0.00;0.00;;;;;;;;;;1739334;28;20226;-68
2022/10/02 01:31:23;;;;;;;0.00;0.00;;;;;;;;;;1739243;28;20191;-69
2022/10/02 01:32:14;;;;;;;0.00;0.00;;;;;;;;;;1740036;28;20712;-69
2022/10/02 01:33:05;;;;;;;0.00;0.00;;;;;;;;;;1739127;28;20399;-69
2022/10/02 01:33:58;;;;;;;0.00;0.00;;;;;;;;;;1739881;28;20213;-69
2022/10/02 01:34:50;;;;;;;0.00;0.00;;;;;;;;;;1738499;28;20773;-69
2022/10/02 01:35:43;;;;;;;0.00;0.00;;;;;;;;;;1740646;28;20207;-69
2022/10/02 01:36:34;;;;;;;0.00;0.00;;;;;;;;;;1738393;28;20704;-68
2022/10/02 01:37:27;;;;;;;0.00;0.00;;;;;;;;;;1740224;28;20194;-68
2022/10/02 01:38:20;;;;;;;0.00;0.00;;;;;;;;;;1738782;28;20238;-68
2022/10/02 01:39:12;;;;;;;0.00;0.00;;;;;;;;;;1739698;28;20221;-68
2022/10/02 01:40:06;;;;;;;0.00;0.00;;;;;;;;;;1739521;28;20235;-68
2022/10/02 01:41:00;;;;;;;0.00;0.00;;;;;;;;;;1739938;28;20214;-69
2022/10/02 01:41:51;;;;;;;0.00;0.00;;;;;;;;;;1738658;28;20242;-69
2022/10/02 01:42:43;;;;;;;0.00;0.00;;;;;;;;;;1740111;28;20215;-69
2022/10/02 01:43:35;;;;;;;0.00;0.00;;;;;;;;;;1738616;28;20258;-69
2022/10/02 01:44:28;;;;;;;0.00;0.00;;;;;;;;;;1740495;28;20206;-69
2022/10/02 01:45:24;;;;;;;0.00;0.00;;;;;;;;;;1738675;28;20434;-69
2022/10/02 01:46:21;;;;;;;0.00;0.00;;;;;;;;;;1740558;28;20591;-69
2022/10/02 01:47:14;;;;;;;0.00;0.00;;;;;;;;;;1739461;28;20235;-69
2022/10/02 01:48:11;;;;;;;0.00;0.00;;;;;;;;;;1739525;28;20199;-69
2022/10/02 01:49:26;;;;;;;0.00;0.00;;;;;;;;;;1736524;28;20235;-69
2022/10/02 01:50:25;;;;;;;0.00;0.00;;;;;;;;;;1728511;28;20207;-69
2022/10/02 01:51:21;;;;;;;0.00;0.00;;;;;;;;;;1739599;28;20581;-69
2022/10/02 01:52:20;;;;;;;0.00;0.00;;;;;;;;;;1739358;28;20604;-69
2022/10/02 01:53:15;;;;;;;0.00;0.00;;;;;;;;;;1738140;28;20234;-69
2022/10/02 01:54:12;;;;;;;0.00;0.00;;;;;;;;;;1740404;28;20230;-69
2022/10/02 01:55:10;;;;;;;0.00;0.00;;;;;;;;;;1738819;28;20305;-69
2022/10/02 01:56:07;;;;;;;0.00;0.00;;;;;;;;;;1738408;28;20210;-69
2022/10/02 01:57:03;;;;;;;0.00;0.00;;;;;;;;;;1739202;28;20888;-69
2022/10/02 01:58:02;;;;;;;0.00;0.00;;;;;;;;;;1735896;28;20192;-69
2022/10/02 01:58:58;;;;;;;0.00;0.00;;;;;;;;;;1740233;28;20302;-69
2022/10/02 01:59:57;;;;;;;0.00;0.00;;;;;;;;;;1738705;28;20282;-69
2022/10/02 02:00:52;;;;;;;0.00;0.00;;;;;;;;;;1740769;28;20195;-69
2022/10/02 02:01:47;;;;;;;0.00;0.00;;;;;;;;;;1738514;28;20545;-69
2022/10/02 02:02:44;;;;;;;0.00;0.00;;;;;;;;;;1740265;28;20734;-69
2022/10/02 02:03:39;;;;;;;0.00;0.00;;;;;;;;;;1738775;28;20242;-69
2022/10/02 02:04:37;;;;;;;0.00;0.00;;;;;;;;;;1740188;28;20594;-69
2022/10/02 02:05:36;;;;;;;0.00;0.00;;;;;;;;;;1739163;28;20264;-69
2022/10/02 02:06:29;;;;;;;0.00;0.00;;;;;;;;;;1739683;28;20722;-69
2022/10/02 02:07:27;;;;;;;0.00;0.00;;;;;;;;;;1740400;28;20692;-69
2022/10/02 02:08:25;;;;;;;0.00;0.00;;;;;;;;;;1738814;28;20601;-69
2022/10/02 02:09:20;;;;;;;0.00;0.00;;;;;;;;;;1739667;28;20199;-69
2022/10/02 02:10:16;;;;;;;0.00;0.00;;;;;;;;;;1739507;28;20605;-69
2022/10/02 02:11:13;;;;;;;0.00;0.00;;;;;;;;;;1732868;28;20203;-69
2022/10/02 02:12:09;;;;;;;0.00;0.00;;;;;;;;;;1738412;28;20191;-69
2022/10/02 02:13:03;;;;;;;0.00;0.00;;;;;;;;;;1739603;28;20278;-69
2022/10/02 02:13:58;;;;;;;0.00;0.00;;;;;;;;;;1739324;28;20235;-69
2022/10/02 02:14:53;;;;;;;0.00;0.00;;;;;;;;;;1739141;28;20192;-69
2022/10/02 02:15:48;;;;;;;0.00;0.00;;;;;;;;;;1740381;28;20290;-69
2022/10/02 02:16:42;;;;;;;0.00;0.00;;;;;;;;;;1739295;28;20195;-69
2022/10/02 02:17:36;;;;;;;0.00;0.00;;;;;;;;;;1740026;28;20250;-69
2022/10/02 02:18:30;;;;;;;0.00;0.00;;;;;;;;;;1739297;28;20241;-69
2022/10/02 02:19:22;;;;;;;0.00;0.00;;;;;;;;;;1739658;28;20668;-69
2022/10/02 02:20:17;;;;;;;0.00;0.00;;;;;;;;;;1739572;28;20257;-69
2022/10/02 02:21:12;;;;;;;0.00;0.00;;;;;;;;;;1740055;28;20241;-68
2022/10/02 02:22:06;;;;;;;0.00;0.00;;;;;;;;;;1738668;28;20206;-68
2022/10/02 02:23:00;;;;;;;0.00;0.00;;;;;;;;;;1739338;28;20211;-68
2022/10/02 02:23:53;;;;;;;0.00;0.00;;;;;;;;;;1739115;28;20223;-68
2022/10/02 02:24:46;;;;;;;0.00;0.00;;;;;;;;;;1738958;28;20235;-68
2022/10/02 02:25:40;;;;;;;0.00;0.00;;;;;;;;;;1740303;28;20237;-68
2022/10/02 02:26:32;;;;;;;0.00;0.00;;;;;;;;;;1738699;28;20711;-68
2022/10/02 02:27:26;;;;;;;0.00;0.00;;;;;;;;;;1739837;28;20207;-68
2022/10/02 02:28:18;;;;;;;0.00;0.00;;;;;;;;;;1738914;28;20243;-68
2022/10/02 02:29:13;;;;;;;0.00;0.00;;;;;;;;;;1740268;28;20209;-68
2022/10/02 02:30:06;;;;;;;0.00;0.00;;;;;;;;;;1739200;28;20648;-68
2022/10/02 02:30:59;;;;;;;0.00;0.00;;;;;;;;;;1740309;28;20578;-69
2022/10/02 02:31:51;;;;;;;0.00;0.00;;;;;;;;;;1738840;28;20239;-69
2022/10/02 02:32:46;;;;;;;0.00;0.00;;;;;;;;;;1739995;28;20206;-69
2022/10/02 02:33:39;;;;;;;0.00;0.00;;;;;;;;;;1738838;28;20226;-69
2022/10/02 02:34:33;;;;;;;0.00;0.00;;;;;;;;;;1739940;28;20202;-70
2022/10/02 02:35:25;;;;;;;0.00;0.00;;;;;;;;;;1739094;28;20700;-69
2022/10/02 02:36:19;;;;;;;0.00;0.00;;;;;;;;;;1739336;28;20199;-68
2022/10/02 02:37:15;;;;;;;0.00;0.00;;;;;;;;;;1739935;28;20695;-68
2022/10/02 02:38:09;;;;;;;0.00;0.00;;;;;;;;;;1738623;28;20656;-68
2022/10/02 02:39:02;;;;;;;0.00;0.00;;;;;;;;;;1736478;28;20270;-68
2022/10/02 02:39:57;;;;;;;0.00;0.00;;;;;;;;;;1738495;28;20597;-68
2022/10/02 02:40:49;;;;;;;0.00;0.00;;;;;;;;;;1740128;28;20235;-68
2022/10/02 02:41:44;;;;;;;0.00;0.00;;;;;;;;;;1738672;28;20443;-69
2022/10/02 02:42:37;;;;;;;0.00;0.00;;;;;;;;;;1739756;28;20199;-69
2022/10/02 02:43:31;;;;;;;0.00;0.00;;;;;;;;;;1738705;28;20293;-69
2022/10/02 02:44:24;;;;;;;0.00;0.00;;;;;;;;;;1739767;28;20526;-69
2022/10/02 02:45:18;;;;;;;0.00;0.00;;;;;;;;;;1738947;28;20234;-69
2022/10/02 02:46:14;;;;;;;0.00;0.00;;;;;;;;;;1739838;28;20624;-68
2022/10/02 02:47:11;;;;;;;0.00;0.00;;;;;;;;;;1738913;28;20227;-68
2022/10/02 02:48:05;;;;;;;0.00;0.00;;;;;;;;;;1739312;28;20564;-68
2022/10/02 02:49:00;;;;;;;0.00;0.00;;;;;;;;;;1739693;28;20249;-68
2022/10/02 02:49:54;;;;;;;0.00;0.00;;;;;;;;;;1738673;28;20218;-68
2022/10/02 02:50:46;;;;;;;0.00;0.00;;;;;;;;;;1739824;28;20222;-68
2022/10/02 02:51:45;;;;;;;0.00;0.00;;;;;;;;;;1739155;28;20203;-69
2022/10/02 02:52:38;;;;;;;0.00;0.00;;;;;;;;;;1739530;28;20629;-69
2022/10/02 02:53:34;;;;;;;0.00;0.00;;;;;;;;;;1738986;28;20203;-69
2022/10/02 02:54:27;;;;;;;0.00;0.00;;;;;;;;;;1739846;28;20209;-69
2022/10/02 02:55:20;;;;;;;0.00;0.00;;;;;;;;;;1739359;28;20239;-69
2022/10/02 02:56:12;;;;;;;0.00;0.00;;;;;;;;;;1739601;28;20298;-69
2022/10/02 02:57:06;;;;;;;0.00;0.00;;;;;;;;;;1738667;28;20676;-69
2022/10/02 02:58:02;;;;;;;0.00;0.00;;;;;;;;;;1739172;28;20242;-69
2022/10/02 02:58:55;;;;;;;0.00;0.00;;;;;;;;;;1739084;28;20597;-69
2022/10/02 02:59:48;;;;;;;0.00;0.00;;;;;;;;;;1738917;28;20199;-69
2022/10/02 03:00:40;;;;;;;0.00;0.00;;;;;;;;;;1736666;28;20199;-69
2022/10/02 03:01:31;;;;;;;0.00;0.00;;;;;;;;;;1738348;28;20231;-69
2022/10/02 03:02:23;;;;;;;0.00;0.00;;;;;;;;;;1739610;28;20207;-69
2022/10/02 03:03:14;;;;;;;0.00;0.00;;;;;;;;;;1738392;28;20221;-69
2022/10/02 03:04:07;;;;;;;0.00;0.00;;;;;;;;;;1739708;28;20222;-69
2022/10/02 03:04:58;;;;;;;0.00;0.00;;;;;;;;;;1738321;28;20234;-69
2022/10/02 03:05:52;;;;;;;0.00;0.00;;;;;;;;;;1740289;28;20947;-69
2022/10/02 03:06:44;;;;;;;0.00;0.00;;;;;;;;;;1738098;28;20254;-68
2022/10/02 03:07:36;;;;;;;0.00;0.00;;;;;;;;;;1739708;28;20655;-68
2022/10/02 03:08:28;;;;;;;0.00;0.00;;;;;;;;;;1738255;28;20230;-68
2022/10/02 03:09:21;;;;;;;0.00;0.00;;;;;;;;;;1739416;28;20532;-68
2022/10/02 03:10:19;;;;;;;0.00;0.00;;;;;;;;;;1739448;28;20239;-68
2022/10/02 03:11:13;;;;;;;0.00;0.00;;;;;;;;;;1739845;28;20221;-69
2022/10/02 03:12:11;;;;;;;0.00;0.00;;;;;;;;;;1737687;28;20696;-69
2022/10/02 03:13:11;;;;;;;0.00;0.00;;;;;;;;;;1739360;28;20576;-69
2022/10/02 03:14:06;;;;;;;0.00;0.00;;;;;;;;;;1736573;28;20294;-69
2022/10/02 03:15:04;;;;;;;0.00;0.00;;;;;;;;;;1738680;28;20624;-69
2022/10/02 03:16:01;;;;;;;0.00;0.00;;;;;;;;;;1739721;28;20245;-68
2022/10/02 03:16:57;;;;;;;0.00;0.00;;;;;;;;;;1738769;28;20195;-68
2022/10/02 03:17:54;;;;;;;0.00;0.00;;;;;;;;;;1739462;28;20241;-68
2022/10/02 03:18:53;;;;;;;0.00;0.00;;;;;;;;;;1738689;28;20191;-68
2022/10/02 03:19:47;;;;;;;0.00;0.00;;;;;;;;;;1738890;28;20270;-68
2022/10/02 03:20:42;;;;;;;0.00;0.00;;;;;;;;;;1736618;28;20199;-68
2022/10/02 03:21:35;;;;;;;0.00;0.00;;;;;;;;;;1738515;28;20241;-69
2022/10/02 03:22:29;;;;;;;0.00;0.00;;;;;;;;;;1739466;28;20209;-69
2022/10/02 03:23:24;;;;;;;0.00;0.00;;;;;;;;;;1738190;28;20364;-69
2022/10/02 03:24:19;;;;;;;0.00;0.00;;;;;;;;;;1739654;28;20230;-69
2022/10/02 03:25:12;;;;;;;0.00;0.00;;;;;;;;;;1738705;28;20242;-69
2022/10/02 03:26:08;;;;;;;0.00;0.00;;;;;;;;;;1739734;28;20289;-69
2022/10/02 03:27:02;;;;;;;0.00;0.00;;;;;;;;;;1738265;28;20299;-69
2022/10/02 03:27:58;;;;;;;0.00;0.00;;;;;;;;;;1739688;28;20632;-69
2022/10/02 03:28:51;;;;;;;0.00;0.00;;;;;;;;;;1739650;28;20283;-69
2022/10/02 03:29:45;;;;;;;0.00;0.00;;;;;;;;;;1739059;28;20264;-69
2022/10/02 03:30:37;;;;;;;0.00;0.00;;;;;;;;;;1744226;28;20234;-69
2022/10/02 03:31:31;;;;;;;0.00;0.00;;;;;;;;;;1743800;28;20643;-69
2022/10/02 03:32:23;;;;;;;0.00;0.00;;;;;;;;;;1739459;28;20671;-69
2022/10/02 03:33:17;;;;;;;0.00;0.00;;;;;;;;;;1738672;28;20226;-69
2022/10/02 03:34:08;;;;;;;0.00;0.00;;;;;;;;;;1739599;28;20727;-69
2022/10/02 03:35:03;;;;;;;0.00;0.00;;;;;;;;;;1738629;28;20286;-69
2022/10/02 03:35:55;;;;;;;0.00;0.00;;;;;;;;;;1739941;28;20214;-68
2022/10/02 03:36:47;;;;;;;0.00;0.00;;;;;;;;;;1738616;28;20202;-68
2022/10/02 03:37:38;;;;;;;0.00;0.00;;;;;;;;;;1739817;28;20241;-68
2022/10/02 03:38:30;;;;;;;0.00;0.00;;;;;;;;;;1738221;28;20285;-68
2022/10/02 03:39:22;;;;;;;0.00;0.00;;;;;;;;;;1739720;28;20620;-68
2022/10/02 03:40:14;;;;;;;0.00;0.00;;;;;;;;;;1737836;28;20261;-69
2022/10/02 03:41:06;;;;;;;0.00;0.00;;;;;;;;;;1732776;28;20211;-69
2022/10/02 03:41:57;;;;;;;0.08;0.08;;;;;;;;;;1732139;28;20537;-69
2022/10/02 03:42:50;;;;;;;0.00;0.00;;;;;;;;;;1732767;28;20210;-69
2022/10/02 03:43:43;;;;;;;0.00;0.00;;;;;;;;;;1732126;28;20204;-69
2022/10/02 03:44:35;;;;;;;0.00;0.00;;;;;;;;;;1732823;28;20558;-69
2022/10/02 03:45:26;;;;;;;0.00;0.00;;;;;;;;;;1732741;28;20629;-69
2022/10/02 03:46:18;;;;;;;0.00;0.00;;;;;;;;;;1732857;28;20302;-69
2022/10/02 03:47:09;;;;;;;0.00;0.00;;;;;;;;;;1732180;28;20223;-69
2022/10/02 03:48:01;;;;;;;0.00;0.00;;;;;;;;;;1732639;28;20219;-69
2022/10/02 03:48:55;;;;;;;0.00;0.00;;;;;;;;;;1732467;28;20234;-69
2022/10/02 03:49:47;;;;;;;0.00;0.00;;;;;;;;;;1732386;28;20227;-69
2022/10/02 03:50:38;;;;;;;0.00;0.00;;;;;;;;;;1729582;28;20231;-69
2022/10/02 03:51:29;;;;;;;0.00;0.00;;;;;;;;;;1732109;28;20246;-68
2022/10/02 03:52:22;;;;;;;0.00;0.00;;;;;;;;;;1732625;28;20448;-68
2022/10/02 03:53:14;;;;;;;0.00;0.00;;;;;;;;;;1732182;28;20219;-68
2022/10/02 03:54:13;;;;;;;0.00;0.00;;;;;;;;;;1732822;28;20629;-68
2022/10/02 03:55:06;;;;;;;0.00;0.00;;;;;;;;;;1731908;28;20245;-68
2022/10/02 03:55:59;;;;;;;0.00;0.00;;;;;;;;;;1732783;28;20589;-69
2022/10/02 03:56:55;;;;;;;0.00;0.00;;;;;;;;;;1732705;28;20207;-69
2022/10/02 03:57:47;;;;;;;0.00;0.00;;;;;;;;;;1727504;28;20192;-69
2022/10/02 03:58:43;;;;;;;0.00;0.00;;;;;;;;;;1732620;28;20249;-69
2022/10/02 03:59:39;;;;;;;0.00;0.00;;;;;;;;;;1734042;28;20508;-69
2022/10/02 04:00:34;;;;;;;0.00;0.00;;;;;;;;;;1734289;28;20614;-69
2022/10/02 04:01:28;;;;;;;0.00;0.00;;;;;;;;;;1733666;28;20290;-69
2022/10/02 04:02:24;;;;;;;0.00;0.00;;;;;;;;;;1730303;28;20491;-69
2022/10/02 04:03:17;;;;;;;0.00;0.00;;;;;;;;;;1733467;28;20254;-69
2022/10/02 04:04:13;;;;;;;0.00;0.00;;;;;;;;;;1733974;28;20600;-69
2022/10/02 04:05:11;;;;;;;0.00;0.00;;;;;;;;;;1733542;28;20262;-69
2022/10/02 04:06:05;;;;;;;0.00;0.00;;;;;;;;;;1734241;28;20628;-68
2022/10/02 04:06:59;;;;;;;0.00;0.00;;;;;;;;;;1733488;28;20242;-68
2022/10/02 04:07:54;;;;;;;0.00;0.00;;;;;;;;;;1734146;28;20286;-68
2022/10/02 04:08:46;;;;;;;0.00;0.00;;;;;;;;;;1733687;28;20753;-68
2022/10/02 04:09:43;;;;;;;0.00;0.00;;;;;;;;;;1733727;28;20269;-68
2022/10/02 04:10:36;;;;;;;0.00;0.00;;;;;;;;;;1733896;28;20329;-68
2022/10/02 04:11:32;;;;;;;0.00;0.00;;;;;;;;;;1733402;28;20206;-69
2022/10/02 04:12:26;;;;;;;0.00;0.00;;;;;;;;;;1733884;28;20196;-69
2022/10/02 04:13:21;;;;;;;0.00;0.00;;;;;;;;;;1733279;28;20214;-69
2022/10/02 04:14:16;;;;;;;0.00;0.00;;;;;;;;;;1734074;28;20210;-69
2022/10/02 04:15:16;;;;;;;0.00;0.00;;;;;;;;;;1734089;28;20306;-69
2022/10/02 04:16:12;;;;;;;0.00;0.00;;;;;;;;;;1733664;28;20223;-69
2022/10/02 04:17:06;;;;;;;0.00;0.00;;;;;;;;;;1733545;28;20200;-69
2022/10/02 04:18:00;;;;;;;0.00;0.00;;;;;;;;;;1733980;28;20246;-69
2022/10/02 04:18:55;;;;;;;0.00;0.00;;;;;;;;;;1733945;28;20656;-69
2022/10/02 04:19:49;;;;;;;0.00;0.00;;;;;;;;;;1733472;28;20258;-69
2022/10/02 04:20:44;;;;;;;0.00;0.00;;;;;;;;;;1731077;28;20195;-69
2022/10/02 04:21:40;;;;;;;0.00;0.00;;;;;;;;;;1733464;28;20740;-68
2022/10/02 04:22:33;;;;;;;0.00;0.00;;;;;;;;;;1733875;28;20192;-68
2022/10/02 04:23:27;;;;;;;0.00;0.00;;;;;;;;;;1733599;28;20226;-68
2022/10/02 04:24:21;;;;;;;0.00;0.00;;;;;;;;;;1733711;28;20571;-68
2022/10/02 04:25:15;;;;;;;0.00;0.00;;;;;;;;;;1733729;28;20246;-68
2022/10/02 04:26:11;;;;;;;0.00;0.00;;;;;;;;;;1726771;28;20214;-69
2022/10/02 04:27:04;;;;;;;0.00;0.00;;;;;;;;;;1733200;28;20682;-69
2022/10/02 04:27:57;;;;;;;0.00;0.00;;;;;;;;;;1733719;28;20212;-69
2022/10/02 04:28:52;;;;;;;0.00;0.00;;;;;;;;;;1733500;28;20443;-69
2022/10/02 04:29:45;;;;;;;0.00;0.00;;;;;;;;;;1733622;28;20638;-69
2022/10/02 04:30:38;;;;;;;0.00;0.00;;;;;;;;;;1733975;28;20242;-69
2022/10/02 04:31:30;;;;;;;0.00;0.00;;;;;;;;;;1733311;28;20227;-69
2022/10/02 04:32:23;;;;;;;0.00;0.00;;;;;;;;;;1733596;28;20254;-69
2022/10/02 04:33:18;;;;;;;0.00;0.00;;;;;;;;;;1732772;28;20234;-69
2022/10/02 04:34:12;;;;;;;0.00;0.00;;;;;;;;;;1738422;28;20713;-69
2022/10/02 04:35:13;;;;;;;0.00;0.00;;;;;;;;;;1737477;28;20287;-69
2022/10/02 04:36:08;;;;;;;0.00;0.00;;;;;;;;;;1735490;28;20613;-68
2022/10/02 04:37:09;;;;;;;0.00;0.00;;;;;;;;;;1737629;28;20199;-68
2022/10/02 04:38:06;;;;;;;0.00;0.00;;;;;;;;;;1739493;28;20246;-68
2022/10/02 04:39:18;;;;;;;0.00;0.00;;;;;;;;;;1740490;28;20318;-68
2022/10/02 04:40:21;;;;;;;0.00;0.00;;;;;;;;;;1735597;28;20208;-68
2022/10/02 04:41:21;;;;;;;0.00;0.00;;;;;;;;;;1727309;28;20185;-69
2022/10/02 04:42:23;;;;;;;0.00;0.00;;;;;;;;;;1732528;28;20281;-69
2022/10/02 04:43:22;;;;;;;0.00;0.00;;;;;;;;;;1733448;28;20326;-69
2022/10/02 04:44:20;;;;;;;0.00;0.00;;;;;;;;;;1733687;28;20752;-69
2022/10/02 04:45:26;;;;;;;0.00;0.00;;;;;;;;;;1733837;28;20298;-69
2022/10/02 04:46:25;;;;;;;0.00;0.00;;;;;;;;;;1727296;28;20209;-69
2022/10/02 04:47:26;;;;;;;0.00;0.00;;;;;;;;;;1733789;28;20264;-69
2022/10/02 04:48:30;;;;;;;0.00;0.00;;;;;;;;;;1733218;28;20239;-69
2022/10/02 04:49:41;;;;;;;0.00;0.00;;;;;;;;;;1733933;28;20247;-69
2022/10/02 04:50:37;;;;;;;0.00;0.00;;;;;;;;;;1734158;28;20246;-69
2022/10/02 04:51:38;;;;;;;0.00;0.00;;;;;;;;;;1733553;28;20597;-69
2022/10/02 04:52:38;;;;;;;0.00;0.00;;;;;;;;;;1733442;28;20657;-69
2022/10/02 04:53:44;;;;;;;0.00;0.00;;;;;;;;;;1733294;28;20204;-69
2022/10/02 04:54:49;;;;;;;0.00;0.00;;;;;;;;;;1733407;28;20233;-69
2022/10/02 04:55:50;;;;;;;0.00;0.00;;;;;;;;;;1734202;28;20192;-69
2022/10/02 04:56:51;;;;;;;0.00;0.00;;;;;;;;;;1733277;28;20601;-69
2022/10/02 04:57:49;;;;;;;0.00;0.00;;;;;;;;;;1733849;28;20199;-69
2022/10/02 04:58:49;;;;;;;0.00;0.00;;;;;;;;;;1733083;28;20231;-69
2022/10/02 04:59:48;;;;;;;0.00;0.00;;;;;;;;;;1733749;28;20263;-69
2022/10/02 05:00:45;;;;;;;0.00;0.00;;;;;;;;;;1734006;28;20618;-69
2022/10/02 05:01:43;;;;;;;0.00;0.00;;;;;;;;;;1733344;28;20200;-69
2022/10/02 05:02:37;;;;;;;0.00;0.00;;;;;;;;;;1733527;28;20239;-69
2022/10/02 05:03:35;;;;;;;0.00;0.00;;;;;;;;;;1732774;28;20278;-69
2022/10/02 05:04:40;;;;;;;0.00;0.00;;;;;;;;;;1733726;28;20207;-69
2022/10/02 05:05:39;;;;;;;0.00;0.00;;;;;;;;;;1733825;28;20295;-69
2022/10/02 05:06:38;;;;;;;0.00;0.00;;;;;;;;;;1733398;28;20222;-68
2022/10/02 05:07:36;;;;;;;0.00;0.00;;;;;;;;;;1733607;28;20200;-68
2022/10/02 05:08:35;;;;;;;0.00;0.00;;;;;;;;;;1732315;28;20290;-68
2022/10/02 05:09:30;;;;;;;0.00;0.00;;;;;;;;;;1733579;28;20612;-69
2022/10/02 05:10:36;;;;;;;0.00;0.00;;;;;;;;;;1733565;28;20289;-68
2022/10/02 05:11:32;;;;;;;0.00;0.00;;;;;;;;;;1733104;28;20203;-68
2022/10/02 05:12:33;;;;;;;0.00;0.00;;;;;;;;;;1733547;28;20238;-68
2022/10/02 05:13:30;;;;;;;0.00;0.00;;;;;;;;;;1733054;28;20204;-68
2022/10/02 05:14:35;;;;;;;0.00;0.00;;;;;;;;;;1733508;28;20684;-68
2022/10/02 05:15:32;;;;;;;0.00;0.00;;;;;;;;;;1733250;28;20222;-68
2022/10/02 05:16:31;;;;;;;0.00;0.00;;;;;;;;;;1733577;28;20266;-68
2022/10/02 05:17:33;;;;;;;0.00;0.00;;;;;;;;;;1730685;28;20219;-68
2022/10/02 05:18:33;;;;;;;0.00;0.00;;;;;;;;;;1733258;28;20640;-68
2022/10/02 05:19:35;;;;;;;0.00;0.00;;;;;;;;;;1733562;28;20207;-68
2022/10/02 05:20:39;;;;;;;0.00;0.00;;;;;;;;;;1733815;28;20285;-68
2022/10/02 05:21:44;;;;;;;0.00;0.00;;;;;;;;;;1733135;28;20258;-68
2022/10/02 05:22:48;;;;;;;0.00;0.00;;;;;;;;;;1733699;28;20196;-68
2022/10/02 05:23:53;;;;;;;0.00;0.00;;;;;;;;;;1733026;28;20196;-68
2022/10/02 05:24:49;;;;;;;0.00;0.00;;;;;;;;;;1733180;28;20340;-68
2022/10/02 05:25:51;;;;;;;0.00;0.00;;;;;;;;;;1730832;28;20610;-68
2022/10/02 05:26:58;;;;;;;0.00;0.00;;;;;;;;;;1733027;28;20266;-68
2022/10/02 05:27:55;;;;;;;0.00;0.00;;;;;;;;;;1726742;28;20543;-68
2022/10/02 05:29:04;;;;;;;0.00;0.00;;;;;;;;;;1734802;28;20307;-68
2022/10/02 05:30:05;;;;;;;0.00;0.00;;;;;;;;;;1735972;28;20584;-68
2022/10/02 05:31:02;;;;;;;0.00;0.00;;;;;;;;;;1726958;28;20220;-68
2022/10/02 05:32:03;;;;;;;0.00;0.00;;;;;;;;;;1731566;28;20295;-68
2022/10/02 05:33:01;;;;;;;0.00;0.00;;;;;;;;;;1733761;28;20282;-68
2022/10/02 05:34:01;;;;;;;0.00;0.00;;;;;;;;;;1733526;28;20599;-68